sensor_id;sensor_type;location;lat;lon;timestamp;pressure;altitude;pressure_sealevel;temperature;humidity
37648;BME280;23490;53.656;10.076;2023-04-25T00:02:08;99157.81;;;-145.95;100.00
37648;BME280;23490;53.656;10.076;2023-04-25T00:04:34;99153.66;;;-145.95;100.00
37648;BME280;23490;53.656;10.076;2023-04-25T00:07:00;99128.88;;;-145.95;100.00
37648;BME280;23490;53.656;10.076;2023-04-25T00:09:27;99182.59;;;-145.95;100.00
37648;BME280;23490;53.656;10.076;2023-04-25T00:11:52;99190.84;;;-145.95;100.00
37648;BME280;23490;53.656;10.076;2023-04-25T00:14:18;99133.03;;;-145.95;100.00
37648;BME280;23490;53.656;10.076;2023-04-25T00:16:43;99174.31;;;-145.95;100.00
37648;BME280;23490;53.656;10.076;2023-04-25T00:19:09;99149.53;;;-145.95;100.00
37648;BME280;23490;53.656;10.076;2023-04-25T00:21:34;99157.81;;;-145.95;100.00
37648;BME280;23490;53.656;10.076;2023-04-25T00:24:00;99192.91;;;-145.95;100.00
37648;BME280;23490;53.656;10.076;2023-04-25T00:26:27;99194.97;;;-145.95;100.00
37648;BME280;23490;53.656;10.076;2023-04-25T00:28:52;99153.66;;;-145.95;100.00
37648;BME280;23490;53.656;10.076;2023-04-25T00:31:18;99178.44;;;-145.95;100.00
37648;BME280;23490;53.656;10.076;2023-04-25T00:33:43;99166.06;;;-145.95;100.00
37648;BME280;23490;53.656;10.076;2023-04-25T00:36:08;99186.72;;;-145.95;100.00
37648;BME280;23490;53.656;10.076;2023-04-25T00:38:35;99186.72;;;-145.95;100.00
37648;BME280;23490;53.656;10.076;2023-04-25T00:41:00;99174.31;;;-145.95;100.00
37648;BME280;23490;53.656;10.076;2023-04-25T00:43:27;99199.09;;;-145.95;100.00
37648;BME280;23490;53.656;10.076;2023-04-25T00:45:53;99186.72;;;-145.95;100.00
37648;BME280;23490;53.656;10.076;2023-04-25T00:48:21;99192.91;;;-145.95;100.00
37648;BME280;23490;53.656;10.076;2023-04-25T00:50:55;99203.22;;;-145.95;100.00
37648;BME280;23490;53.656;10.076;2023-04-25T00:53:22;99203.22;;;-145.95;100.00
37648;BME280;23490;53.656;10.076;2023-04-25T00:55:49;99223.88;;;-145.95;100.00
37648;BME280;23490;53.656;10.076;2023-04-25T00:58:17;99157.81;;;-145.95;100.00
37648;BME280;23490;53.656;10.076;2023-04-25T01:00:44;99205.28;;;-145.95;100.00
37648;BME280;23490;53.656;10.076;2023-04-25T01:03:10;99194.97;;;-145.95;100.00
37648;BME280;23490;53.656;10.076;2023-04-25T01:05:36;99180.50;;;-145.95;100.00
37648;BME280;23490;53.656;10.076;2023-04-25T01:08:01;99199.09;;;-145.95;100.00
37648;BME280;23490;53.656;10.076;2023-04-25T01:10:27;99139.22;;;-145.95;99.78
37648;BME280;23490;53.656;10.076;2023-04-25T01:12:52;99207.38;;;-145.95;99.25
37648;BME280;23490;53.656;10.076;2023-04-25T01:15:18;99203.22;;;-145.95;99.52
37648;BME280;23490;53.656;10.076;2023-04-25T01:17:44;99190.84;;;-145.95;97.47
37648;BME280;23490;53.656;10.076;2023-04-25T01:20:11;99194.97;;;-145.95;97.97
37648;BME280;23490;53.656;10.076;2023-04-25T01:22:37;99219.75;;;-145.95;98.78
37648;BME280;23490;53.656;10.076;2023-04-25T01:25:03;99230.06;;;-145.95;97.08
37648;BME280;23490;53.656;10.076;2023-04-25T01:27:29;99197.03;;;-145.95;99.05
37648;BME280;23490;53.656;10.076;2023-04-25T01:29:55;99215.63;;;-145.95;98.43
37648;BME280;23490;53.656;10.076;2023-04-25T01:32:23;99256.94;;;-145.95;95.72
37648;BME280;23490;53.656;10.076;2023-04-25T01:34:49;99219.75;;;-145.95;96.17
37648;BME280;23490;53.656;10.076;2023-04-25T01:37:14;99219.75;;;-145.95;94.78
37648;BME280;23490;53.656;10.076;2023-04-25T01:39:41;99199.09;;;-145.95;95.33
37648;BME280;23490;53.656;10.076;2023-04-25T01:42:06;99223.88;;;-145.95;95.81
37648;BME280;23490;53.656;10.076;2023-04-25T01:44:32;99201.16;;;-145.95;94.30
37648;BME280;23490;53.656;10.076;2023-04-25T01:46:59;99211.50;;;-145.95;94.75
37648;BME280;23490;53.656;10.076;2023-04-25T01:49:24;99221.81;;;-145.95;93.21
37648;BME280;23490;53.656;10.076;2023-04-25T01:51:50;99207.38;;;-145.95;91.86
37648;BME280;23490;53.656;10.076;2023-04-25T01:54:18;99244.53;;;-145.95;91.99
37648;BME280;23490;53.656;10.076;2023-04-25T01:56:43;99199.09;;;-145.95;90.38
37648;BME280;23490;53.656;10.076;2023-04-25T01:59:08;99211.50;;;-145.95;90.16
37648;BME280;23490;53.656;10.076;2023-04-25T02:01:34;99215.63;;;-145.95;90.59
37648;BME280;23490;53.656;10.076;2023-04-25T02:03:59;99236.28;;;-145.95;87.63
37648;BME280;23490;53.656;10.076;2023-04-25T02:06:26;99178.44;;;-145.95;86.41
37648;BME280;23490;53.656;10.076;2023-04-25T02:08:51;99215.63;;;-145.95;86.54
37648;BME280;23490;53.656;10.076;2023-04-25T02:11:18;99236.28;;;-145.95;84.88
37648;BME280;23490;53.656;10.076;2023-04-25T02:13:43;99219.75;;;-145.95;85.01
37648;BME280;23490;53.656;10.076;2023-04-25T02:16:09;99285.84;;;-145.95;84.87
37648;BME280;23490;53.656;10.076;2023-04-25T02:18:34;99244.53;;;-145.95;82.56
37648;BME280;23490;53.656;10.076;2023-04-25T02:21:03;99269.31;;;-145.95;83.44
37648;BME280;23490;53.656;10.076;2023-04-25T02:23:28;99265.19;;;-145.95;84.46
37648;BME280;23490;53.656;10.076;2023-04-25T02:25:56;99234.22;;;-145.95;83.85
37648;BME280;23490;53.656;10.076;2023-04-25T02:28:24;99259.00;;;-145.95;83.79
37648;BME280;23490;53.656;10.076;2023-04-25T02:30:49;99254.84;;;-145.95;84.02
37648;BME280;23490;53.656;10.076;2023-04-25T02:33:15;99252.78;;;-145.95;84.36
37648;BME280;23490;53.656;10.076;2023-04-25T02:35:42;99248.66;;;-145.95;83.03
37648;BME280;23490;53.656;10.076;2023-04-25T02:38:07;99267.25;;;-145.95;83.74
37648;BME280;23490;53.656;10.076;2023-04-25T02:40:33;99230.06;;;-145.95;83.92
37648;BME280;23490;53.656;10.076;2023-04-25T02:42:58;99256.94;;;-145.95;83.29
37648;BME280;23490;53.656;10.076;2023-04-25T02:45:24;99246.59;;;-145.95;83.84
37648;BME280;23490;53.656;10.076;2023-04-25T02:47:49;99256.94;;;-145.95;86.02
37648;BME280;23490;53.656;10.076;2023-04-25T02:50:15;99252.78;;;-145.95;85.67
37648;BME280;23490;53.656;10.076;2023-04-25T02:52:40;99261.06;;;-145.95;83.09
37648;BME280;23490;53.656;10.076;2023-04-25T02:55:06;99244.53;;;-145.95;82.46
37648;BME280;23490;53.656;10.076;2023-04-25T02:57:31;99248.66;;;-145.95;82.55
37648;BME280;23490;53.656;10.076;2023-04-25T02:59:57;99277.56;;;-145.95;84.11
37648;BME280;23490;53.656;10.076;2023-04-25T03:02:22;99285.84;;;-145.95;83.99
37648;BME280;23490;53.656;10.076;2023-04-25T03:04:47;99256.94;;;-145.95;81.03
37648;BME280;23490;53.656;10.076;2023-04-25T03:07:13;99254.84;;;-145.95;81.87
37648;BME280;23490;53.656;10.076;2023-04-25T03:09:38;99277.56;;;-145.95;81.53
37648;BME280;23490;53.656;10.076;2023-04-25T03:12:04;99302.34;;;-145.95;82.25
37648;BME280;23490;53.656;10.076;2023-04-25T03:14:29;99287.91;;;-145.95;83.20
37648;BME280;23490;53.656;10.076;2023-04-25T03:16:55;99294.09;;;-145.95;81.88
37648;BME280;23490;53.656;10.076;2023-04-25T03:19:23;99263.13;;;-145.95;82.22
37648;BME280;23490;53.656;10.076;2023-04-25T03:21:50;99298.22;;;-145.95;81.31
37648;BME280;23490;53.656;10.076;2023-04-25T03:24:15;99285.84;;;-145.95;80.68
37648;BME280;23490;53.656;10.076;2023-04-25T03:26:40;99323.00;;;-145.95;81.68
37648;BME280;23490;53.656;10.076;2023-04-25T03:29:07;99314.75;;;-145.95;81.09
37648;BME280;23490;53.656;10.076;2023-04-25T03:31:32;99318.88;;;-145.95;80.94
37648;BME280;23490;53.656;10.076;2023-04-25T03:33:58;99298.22;;;-145.95;80.71
37648;BME280;23490;53.656;10.076;2023-04-25T03:36:24;99285.84;;;-145.95;80.73
37648;BME280;23490;53.656;10.076;2023-04-25T03:38:49;99360.19;;;-145.95;80.03
37648;BME280;23490;53.656;10.076;2023-04-25T03:41:15;99314.75;;;-145.95;79.17
37648;BME280;23490;53.656;10.076;2023-04-25T03:43:40;99314.75;;;-145.95;79.25
37648;BME280;23490;53.656;10.076;2023-04-25T03:46:06;99310.63;;;-145.95;78.95
37648;BME280;23490;53.656;10.076;2023-04-25T03:48:31;99389.09;;;-145.95;77.77
37648;BME280;23490;53.656;10.076;2023-04-25T03:50:56;99339.53;;;-145.95;78.59
37648;BME280;23490;53.656;10.076;2023-04-25T03:53:22;99335.41;;;-145.95;78.12
37648;BME280;23490;53.656;10.076;2023-04-25T03:55:47;99323.00;;;-145.95;77.42
37648;BME280;23490;53.656;10.076;2023-04-25T03:58:12;99306.50;;;-145.95;78.50
37648;BME280;23490;53.656;10.076;2023-04-25T04:00:38;99360.19;;;-145.95;78.95
37648;BME280;23490;53.656;10.076;2023-04-25T04:03:05;99323.00;;;-145.95;80.53
37648;BME280;23490;53.656;10.076;2023-04-25T04:05:30;99345.72;;;-145.95;77.43
37648;BME280;23490;53.656;10.076;2023-04-25T04:07:56;99331.28;;;-145.95;77.36
37648;BME280;23490;53.656;10.076;2023-04-25T04:10:21;99331.28;;;-145.95;77.55
37648;BME280;23490;53.656;10.076;2023-04-25T04:12:47;99331.28;;;-145.95;76.83
37648;BME280;23490;53.656;10.076;2023-04-25T04:15:12;99312.69;;;-145.95;77.54
37648;BME280;23490;53.656;10.076;2023-04-25T04:17:39;99364.31;;;-145.95;76.35
37648;BME280;23490;53.656;10.076;2023-04-25T04:20:06;99368.44;;;-145.95;76.96
37648;BME280;23490;53.656;10.076;2023-04-25T04:22:33;99345.72;;;-145.95;78.19
37648;BME280;23490;53.656;10.076;2023-04-25T04:24:58;99374.63;;;-145.95;80.00
37648;BME280;23490;53.656;10.076;2023-04-25T04:27:24;99343.66;;;-145.95;78.79
37648;BME280;23490;53.656;10.076;2023-04-25T04:29:49;99323.00;;;-145.95;78.20
37648;BME280;23490;53.656;10.076;2023-04-25T04:32:17;99318.88;;;-145.95;78.82
37648;BME280;23490;53.656;10.076;2023-04-25T04:34:42;99347.78;;;-145.95;77.99
37648;BME280;23490;53.656;10.076;2023-04-25T04:37:08;99343.66;;;-145.95;78.35
37648;BME280;23490;53.656;10.076;2023-04-25T04:39:35;99387.03;;;-145.95;79.92
37648;BME280;23490;53.656;10.076;2023-04-25T04:42:00;99329.19;;;-145.95;78.92
37648;BME280;23490;53.656;10.076;2023-04-25T04:44:27;99360.19;;;-145.95;78.37
37648;BME280;23490;53.656;10.076;2023-04-25T04:46:54;99306.50;;;-145.95;76.69
37648;BME280;23490;53.656;10.076;2023-04-25T04:49:21;99329.19;;;-145.95;75.30
37648;BME280;23490;53.656;10.076;2023-04-25T04:51:46;99318.88;;;-145.95;75.87
37648;BME280;23490;53.656;10.076;2023-04-25T04:54:14;99314.75;;;-145.95;77.38
37648;BME280;23490;53.656;10.076;2023-04-25T04:56:40;99323.00;;;-145.95;75.78
37648;BME280;23490;53.656;10.076;2023-04-25T04:59:07;99302.34;;;-145.95;74.87
37648;BME280;23490;53.656;10.076;2023-04-25T05:01:33;99310.63;;;-145.95;75.90
37648;BME280;23490;53.656;10.076;2023-04-25T05:04:00;99318.88;;;-145.95;75.53
37648;BME280;23490;53.656;10.076;2023-04-25T05:06:27;99252.78;;;-145.95;74.02
37648;BME280;23490;53.656;10.076;2023-04-25T05:08:53;99302.34;;;-145.95;73.80
37648;BME280;23490;53.656;10.076;2023-04-25T05:11:19;99256.94;;;-145.95;74.59
37648;BME280;23490;53.656;10.076;2023-04-25T05:13:46;99273.44;;;-145.95;74.60
37648;BME280;23490;53.656;10.076;2023-04-25T05:16:12;99273.44;;;-145.95;74.05
37648;BME280;23490;53.656;10.076;2023-04-25T05:18:39;99298.22;;;-145.95;74.81
37648;BME280;23490;53.656;10.076;2023-04-25T05:21:04;99308.56;;;-145.95;76.76
37648;BME280;23490;53.656;10.076;2023-04-25T05:23:30;99294.09;;;-145.95;78.94
37648;BME280;23490;53.656;10.076;2023-04-25T05:25:56;99323.00;;;-145.95;80.03
37648;BME280;23490;53.656;10.076;2023-04-25T05:28:22;99298.22;;;-145.95;80.48
37648;BME280;23490;53.656;10.076;2023-04-25T05:30:47;99347.78;;;-145.95;80.86
37648;BME280;23490;53.656;10.076;2023-04-25T05:33:13;99314.75;;;-145.95;82.18
37648;BME280;23490;53.656;10.076;2023-04-25T05:35:38;99327.13;;;-145.95;82.72
37648;BME280;23490;53.656;10.076;2023-04-25T05:38:04;99327.13;;;-145.95;82.67
37648;BME280;23490;53.656;10.076;2023-04-25T05:40:29;99304.41;;;-145.95;82.76
37648;BME280;23490;53.656;10.076;2023-04-25T05:42:57;99298.22;;;-145.95;83.01
37648;BME280;23490;53.656;10.076;2023-04-25T05:45:22;99329.19;;;-145.95;84.14
37648;BME280;23490;53.656;10.076;2023-04-25T05:47:48;99285.84;;;-145.95;83.51
37648;BME280;23490;53.656;10.076;2023-04-25T05:50:13;99308.56;;;-145.95;83.01
37648;BME280;23490;53.656;10.076;2023-04-25T05:52:39;99323.00;;;-145.95;84.08
37648;BME280;23490;53.656;10.076;2023-04-25T05:55:05;99368.44;;;-145.95;85.32
37648;BME280;23490;53.656;10.076;2023-04-25T05:57:30;99335.41;;;-145.95;85.08
37648;BME280;23490;53.656;10.076;2023-04-25T05:59:56;99314.75;;;-145.95;85.00
37648;BME280;23490;53.656;10.076;2023-04-25T06:02:21;99287.91;;;-145.95;86.20
37648;BME280;23490;53.656;10.076;2023-04-25T06:04:49;99310.63;;;-145.95;87.20
37648;BME280;23490;53.656;10.076;2023-04-25T06:07:15;99302.34;;;-145.95;88.40
37648;BME280;23490;53.656;10.076;2023-04-25T06:09:40;99318.88;;;-145.95;87.64
37648;BME280;23490;53.656;10.076;2023-04-25T06:12:06;99296.16;;;-145.95;88.56
37648;BME280;23490;53.656;10.076;2023-04-25T06:14:33;99269.31;;;-145.95;86.49
37648;BME280;23490;53.656;10.076;2023-04-25T06:16:59;99234.22;;;-145.95;87.23
37648;BME280;23490;53.656;10.076;2023-04-25T06:19:24;99273.44;;;-145.95;86.74
37648;BME280;23490;53.656;10.076;2023-04-25T06:21:49;99273.44;;;-145.95;85.67
37648;BME280;23490;53.656;10.076;2023-04-25T06:24:15;99248.66;;;-145.95;85.45
37648;BME280;23490;53.656;10.076;2023-04-25T06:26:40;99240.41;;;-145.95;85.52
37648;BME280;23490;53.656;10.076;2023-04-25T06:29:06;99232.16;;;-145.95;82.35
37648;BME280;23490;53.656;10.076;2023-04-25T06:31:32;99236.28;;;-145.95;82.83
37648;BME280;23490;53.656;10.076;2023-04-25T06:33:59;99223.88;;;-145.95;82.31
37648;BME280;23490;53.656;10.076;2023-04-25T06:36:27;99205.28;;;-145.95;81.71
37648;BME280;23490;53.656;10.076;2023-04-25T06:38:53;99219.75;;;-145.95;81.33
37648;BME280;23490;53.656;10.076;2023-04-25T06:41:19;99232.16;;;-145.95;79.33
37648;BME280;23490;53.656;10.076;2023-04-25T06:43:45;99263.13;;;-145.95;78.30
37648;BME280;23490;53.656;10.076;2023-04-25T06:46:12;99261.06;;;-145.95;77.37
37648;BME280;23490;53.656;10.076;2023-04-25T06:48:37;99256.94;;;-145.95;77.82
37648;BME280;23490;53.656;10.076;2023-04-25T06:51:03;99232.16;;;-145.95;79.02
37648;BME280;23490;53.656;10.076;2023-04-25T06:53:29;99213.56;;;-145.95;81.35
37648;BME280;23490;53.656;10.076;2023-04-25T06:55:54;99261.06;;;-145.95;82.56
37648;BME280;23490;53.656;10.076;2023-04-25T06:58:19;99236.28;;;-145.95;84.86
37648;BME280;23490;53.656;10.076;2023-04-25T07:00:45;99259.00;;;-145.95;87.83
37648;BME280;23490;53.656;10.076;2023-04-25T07:03:12;99306.50;;;-145.95;87.82
37648;BME280;23490;53.656;10.076;2023-04-25T07:05:41;99351.91;;;-145.95;91.92
37648;BME280;23490;53.656;10.076;2023-04-25T07:08:06;99296.16;;;-145.95;93.24
37648;BME280;23490;53.656;10.076;2023-04-25T07:10:32;99285.84;;;-145.95;93.93
37648;BME280;23490;53.656;10.076;2023-04-25T07:12:59;99285.84;;;-145.95;94.88
37648;BME280;23490;53.656;10.076;2023-04-25T07:15:24;99331.28;;;-145.95;96.77
37648;BME280;23490;53.656;10.076;2023-04-25T07:17:49;99306.50;;;-145.95;94.74
37648;BME280;23490;53.656;10.076;2023-04-25T07:20:18;99327.13;;;-145.95;94.83
37648;BME280;23490;53.656;10.076;2023-04-25T07:22:45;99323.00;;;-145.95;93.83
37648;BME280;23490;53.656;10.076;2023-04-25T07:25:11;99347.78;;;-145.95;92.78
37648;BME280;23490;53.656;10.076;2023-04-25T07:27:36;99310.63;;;-145.95;95.26
37648;BME280;23490;53.656;10.076;2023-04-25T07:30:03;99250.72;;;-145.95;95.26
37648;BME280;23490;53.656;10.076;2023-04-25T07:32:29;99234.22;;;-145.95;94.94
37648;BME280;23490;53.656;10.076;2023-04-25T07:34:55;99236.28;;;-145.95;95.19
37648;BME280;23490;53.656;10.076;2023-04-25T07:37:21;99261.06;;;-145.95;90.67
37648;BME280;23490;53.656;10.076;2023-04-25T07:39:46;99151.59;;;-145.95;90.19
37648;BME280;23490;53.656;10.076;2023-04-25T07:42:12;99219.75;;;-145.95;90.87
37648;BME280;23490;53.656;10.076;2023-04-25T07:44:38;99199.09;;;-145.95;88.33
37648;BME280;23490;53.656;10.076;2023-04-25T07:47:05;99170.19;;;-145.95;87.50
37648;BME280;23490;53.656;10.076;2023-04-25T07:49:34;99161.94;;;-145.95;88.81
37648;BME280;23490;53.656;10.076;2023-04-25T07:52:01;99194.97;;;-145.95;87.19
37648;BME280;23490;53.656;10.076;2023-04-25T07:54:27;99145.41;;;-145.95;86.56
37648;BME280;23490;53.656;10.076;2023-04-25T07:56:55;99143.34;;;-145.95;85.92
37648;BME280;23490;53.656;10.076;2023-04-25T07:59:21;99108.25;;;-145.95;86.98
37648;BME280;23490;53.656;10.076;2023-04-25T08:01:47;99091.72;;;-145.95;83.20
37648;BME280;23490;53.656;10.076;2023-04-25T08:04:12;99108.25;;;-145.95;83.79
37648;BME280;23490;53.656;10.076;2023-04-25T08:06:37;99114.44;;;-145.95;81.43
37648;BME280;23490;53.656;10.076;2023-04-25T08:09:03;99188.78;;;-145.95;79.85
37648;BME280;23490;53.656;10.076;2023-04-25T08:11:29;99128.88;;;-145.95;82.70
37648;BME280;23490;53.656;10.076;2023-04-25T08:13:57;99166.06;;;-145.95;84.35
37648;BME280;23490;53.656;10.076;2023-04-25T08:16:22;99203.22;;;-145.95;84.84
37648;BME280;23490;53.656;10.076;2023-04-25T08:18:49;99265.19;;;-145.95;88.07
37648;BME280;23490;53.656;10.076;2023-04-25T08:21:15;99277.56;;;-145.95;91.92
37648;BME280;23490;53.656;10.076;2023-04-25T08:23:41;99289.97;;;-145.95;92.43
37648;BME280;23490;53.656;10.076;2023-04-25T08:26:07;99285.84;;;-145.95;95.80
37648;BME280;23490;53.656;10.076;2023-04-25T08:28:32;99271.38;;;-145.95;93.40
37648;BME280;23490;53.656;10.076;2023-04-25T08:30:58;99211.50;;;-145.95;93.85
37648;BME280;23490;53.656;10.076;2023-04-25T08:33:24;99269.31;;;-145.95;91.64
37648;BME280;23490;53.656;10.076;2023-04-25T08:35:50;99211.50;;;-145.95;91.94
37648;BME280;23490;53.656;10.076;2023-04-25T08:38:17;99209.44;;;-145.95;90.86
37648;BME280;23490;53.656;10.076;2023-04-25T08:40:43;99112.38;;;-145.95;90.01
37648;BME280;23490;53.656;10.076;2023-04-25T08:43:09;98996.72;;;-145.95;84.43
37648;BME280;23490;53.656;10.076;2023-04-25T08:45:41;98922.41;;;-145.95;82.03
37648;BME280;23490;53.656;10.076;2023-04-25T08:48:11;98848.06;;;-145.95;77.85
37648;BME280;23490;53.656;10.076;2023-04-25T08:50:40;98722.09;;;-145.95;76.41
37648;BME280;23490;53.656;10.076;2023-04-25T08:53:12;98616.78;;;-145.95;71.15
37648;BME280;23490;53.656;10.076;2023-04-25T08:55:41;98563.13;;;-145.95;69.18
37648;BME280;23490;53.656;10.076;2023-04-25T08:58:07;98666.34;;;-145.95;65.25
37648;BME280;23490;53.656;10.076;2023-04-25T09:00:35;98810.88;;;-145.95;68.23
37648;BME280;23490;53.656;10.076;2023-04-25T09:03:01;98897.63;;;-145.95;70.64
37648;BME280;23490;53.656;10.076;2023-04-25T09:05:28;98955.44;;;-145.95;77.17
37648;BME280;23490;53.656;10.076;2023-04-25T09:07:55;98994.66;;;-145.95;76.64
37648;BME280;23490;53.656;10.076;2023-04-25T09:10:22;99009.13;;;-145.95;73.35
37648;BME280;23490;53.656;10.076;2023-04-25T09:13:07;99009.13;;;-145.95;75.78
37648;BME280;23490;53.656;10.076;2023-04-25T09:15:49;99112.38;;;-145.95;73.04
37648;BME280;23490;53.656;10.076;2023-04-25T09:18:22;99087.59;;;-145.95;76.46
37648;BME280;23490;53.656;10.076;2023-04-25T09:20:49;99073.13;;;-145.95;72.86
37648;BME280;23490;53.656;10.076;2023-04-25T09:23:15;99083.47;;;-145.95;67.93
37648;BME280;23490;53.656;10.076;2023-04-25T09:25:40;99038.03;;;-145.95;68.96
37648;BME280;23490;53.656;10.076;2023-04-25T09:28:08;98969.88;;;-145.95;66.47
37648;BME280;23490;53.656;10.076;2023-04-25T09:30:34;98959.56;;;-145.95;65.22
37648;BME280;23490;53.656;10.076;2023-04-25T09:33:08;98943.03;;;-145.95;62.21
37648;BME280;23490;53.656;10.076;2023-04-25T09:35:42;98786.09;;;-145.95;63.95
37648;BME280;23490;53.656;10.076;2023-04-25T09:38:12;98550.72;;;-145.95;58.63
37648;BME280;23490;53.656;10.076;2023-04-25T09:40:45;98732.44;;;-145.95;56.80
37648;BME280;23490;53.656;10.076;2023-04-25T09:43:19;98879.03;;;-145.95;59.47
37648;BME280;23490;53.656;10.076;2023-04-25T09:45:45;99007.06;;;-145.95;62.66
37648;BME280;23490;53.656;10.076;2023-04-25T09:48:19;99112.38;;;-145.95;75.87
37648;BME280;23490;53.656;10.076;2023-04-25T09:51:08;99143.34;;;-145.95;84.74
37648;BME280;23490;53.656;10.076;2023-04-25T09:53:35;99112.38;;;-145.95;86.53
37648;BME280;23490;53.656;10.076;2023-04-25T09:56:03;99083.47;;;-145.95;86.42
37648;BME280;23490;53.656;10.076;2023-04-25T09:58:34;99033.91;;;-145.95;83.58
37648;BME280;23490;53.656;10.076;2023-04-25T10:01:04;98893.47;;;-145.95;82.30
37648;BME280;23490;53.656;10.076;2023-04-25T10:03:34;98802.63;;;-145.95;78.28
37648;BME280;23490;53.656;10.076;2023-04-25T10:06:02;98569.31;;;-145.95;75.23
37648;BME280;23490;53.656;10.076;2023-04-25T10:08:37;98410.34;;;-145.95;61.82
37648;BME280;23490;53.656;10.076;2023-04-25T10:11:05;98261.69;;;-145.95;60.67
37648;BME280;23490;53.656;10.076;2023-04-25T10:13:31;98410.34;;;-145.95;59.97
37648;BME280;23490;53.656;10.076;2023-04-25T10:16:02;98484.66;;;-145.95;56.18
37648;BME280;23490;53.656;10.076;2023-04-25T10:18:29;98575.50;;;-145.95;59.72
37648;BME280;23490;53.656;10.076;2023-04-25T10:21:02;98647.78;;;-145.95;56.44
37648;BME280;23490;53.656;10.076;2023-04-25T10:23:30;98695.25;;;-145.95;55.58
37648;BME280;23490;53.656;10.076;2023-04-25T10:26:03;98732.44;;;-145.95;52.79
37648;BME280;23490;53.656;10.076;2023-04-25T10:28:29;98705.59;;;-145.95;53.09
37648;BME280;23490;53.656;10.076;2023-04-25T10:31:15;98653.97;;;-145.95;53.54
37648;BME280;23490;53.656;10.076;2023-04-25T10:33:42;98637.44;;;-145.95;55.41
37648;BME280;23490;53.656;10.076;2023-04-25T10:36:12;98480.53;;;-145.95;53.67
37648;BME280;23490;53.656;10.076;2023-04-25T10:38:39;98435.09;;;-145.95;52.32
37648;BME280;23490;53.656;10.076;2023-04-25T10:41:07;98360.78;;;-145.95;51.87
37648;BME280;23490;53.656;10.076;2023-04-25T10:43:40;98307.09;;;-145.95;51.88
37648;BME280;23490;53.656;10.076;2023-04-25T10:46:27;98338.06;;;-145.95;49.43
37648;BME280;23490;53.656;10.076;2023-04-25T10:48:59;98472.28;;;-145.95;50.79
37648;BME280;23490;53.656;10.076;2023-04-25T10:51:34;98637.44;;;-145.95;56.77
37648;BME280;23490;53.656;10.076;2023-04-25T10:54:03;98736.56;;;-145.95;56.31
37648;BME280;23490;53.656;10.076;2023-04-25T10:56:31;98777.84;;;-145.95;54.82
37648;BME280;23490;53.656;10.076;2023-04-25T10:59:08;98817.09;;;-145.95;55.93
37648;BME280;23490;53.656;10.076;2023-04-25T11:01:40;98829.47;;;-145.95;56.12
37648;BME280;23490;53.656;10.076;2023-04-25T11:04:30;98538.34;;;-145.95;53.76
37648;BME280;23490;53.656;10.076;2023-04-25T11:09:38;98848.06;;;-145.95;60.64
37648;BME280;23490;53.656;10.076;2023-04-25T11:12:07;98988.47;;;-145.95;60.48
37648;BME280;23490;53.656;10.076;2023-04-25T11:14:36;98959.56;;;-145.95;61.39
37648;BME280;23490;53.656;10.076;2023-04-25T11:17:02;98947.16;;;-145.95;57.98
37648;BME280;23490;53.656;10.076;2023-04-25T11:19:28;98930.66;;;-145.95;59.64
37648;BME280;23490;53.656;10.076;2023-04-25T11:21:56;98955.44;;;-145.95;59.73
37648;BME280;23490;53.656;10.076;2023-04-25T11:24:27;98945.09;;;-145.95;60.15
37648;BME280;23490;53.656;10.076;2023-04-25T11:26:53;98959.56;;;-145.95;59.50
37648;BME280;23490;53.656;10.076;2023-04-25T11:29:22;98905.88;;;-145.95;62.91
37648;BME280;23490;53.656;10.076;2023-04-25T11:31:48;98790.25;;;-145.95;58.55
37648;BME280;23490;53.656;10.076;2023-04-25T11:34:18;98412.41;;;-145.95;56.18
37648;BME280;23490;53.656;10.076;2023-04-25T11:36:45;98323.63;;;-145.95;51.39
37648;BME280;23490;53.656;10.076;2023-04-25T11:39:13;98191.50;;;-145.95;50.06
37648;BME280;23490;53.656;10.076;2023-04-25T11:41:41;98022.22;;;-145.95;47.72
37648;BME280;23490;53.656;10.076;2023-04-25T11:44:07;98009.81;;;-145.95;45.83
37648;BME280;23490;53.656;10.076;2023-04-25T11:46:36;98013.94;;;-145.95;45.69
37648;BME280;23490;53.656;10.076;2023-04-25T11:49:02;98255.50;;;-145.95;46.66
37648;BME280;23490;53.656;10.076;2023-04-25T11:51:28;98187.34;;;-145.95;47.82
37648;BME280;23490;53.656;10.076;2023-04-25T11:53:53;98546.59;;;-145.95;46.37
37648;BME280;23490;53.656;10.076;2023-04-25T11:56:20;98214.19;;;-145.95;44.19
37648;BME280;23490;53.656;10.076;2023-04-25T11:59:00;98494.97;;;-145.95;43.63
37648;BME280;23490;53.656;10.076;2023-04-25T12:01:36;97964.41;;;-145.95;44.76
37648;BME280;23490;53.656;10.076;2023-04-25T12:06:46;98195.63;;;-145.95;41.39
37648;BME280;23490;53.656;10.076;2023-04-25T12:09:14;97741.47;;;-145.95;40.29
37648;BME280;23490;53.656;10.076;2023-04-25T12:11:45;97943.75;;;-145.95;39.67
37648;BME280;23490;53.656;10.076;2023-04-25T12:14:11;98319.50;;;-145.95;42.38
37648;BME280;23490;53.656;10.076;2023-04-25T12:16:41;98592.03;;;-145.95;42.76
37648;BME280;23490;53.656;10.076;2023-04-25T12:19:07;98503.25;;;-145.95;44.88
37648;BME280;23490;53.656;10.076;2023-04-25T12:21:35;97710.50;;;-145.95;42.52
37648;BME280;23490;53.656;10.076;2023-04-25T12:24:21;97580.47;;;-145.95;41.54
37648;BME280;23490;53.656;10.076;2023-04-25T12:29:23;98280.25;;;-145.95;41.20
37648;BME280;23490;53.656;10.076;2023-04-25T12:31:51;98414.47;;;-145.95;43.51
37648;BME280;23490;53.656;10.076;2023-04-25T12:34:18;98488.78;;;-145.95;44.54
37648;BME280;23490;53.656;10.076;2023-04-25T12:36:43;97877.69;;;-145.95;45.50